KDRT/DRT METAR and TAF weather

Enter ICAO airport designator
Station Type Date Time Source
KDRT METAR 2018/12/18 11:53 UTC NOAA

KDRT 181153Z AUTO 10007KT 10SM CLR 08/06 A3005 RMK AO2 SLP170 T00780056 10094 20067 55010


Station Type Date Time Source
KDRT Decoded METAR 2018/12/18 11:53 UTC NOAA

DEL RIO INTERNATIONAL AIRPORT, TX, United States (KDRT) 29-22N 100-55W 313M
Dec 18, 2018 - 06:53 AM EST / 2018.12.18 1153 UTC
Wind: from the E (100 degrees) at 8 MPH (7 KT):0
Visibility: 10 mile(s):0
Sky conditions: clear
Temperature: 46.0 F (7.8 C)
Dew Point: 42.1 F (5.6 C)
Relative Humidity: 85%
Pressure (altimeter): 30.05 in. Hg (1017 hPa)
Pressure tendency: 0.03 inches (1.0 hPa) lower than three hours ago
ob: KDRT 181153Z AUTO 10007KT 10SM CLR 08/06 A3005 RMK AO2 SLP170 T00780056 10094 20067 55010
cycle: 12

Station Type Date Time Source
KDRT TAF 2018/12/18 12:30 UTC NOAA

TAF KDRT 181129Z 1812/1912 10004KT P6SM FEW200
FM181400 15007KT 5SM BR BKN015
FM181700 16009KT P6SM BKN025
FM181900 14007KT P6SM BKN035
FM190900 11005KT P6SM OVC015


Example: see airport list